Time;durP1;ratioP1;P1;durP2;ratioP2;P2;SDS_P1;SDS_P2;PMS_P1;PMS_P2;Temp;Humidity;BMP_temperature;BMP_pressure;BME280_temperature;BME280_humidity;BME280_pressure;Samples;Min_cycle;Max_cycle;Signal;HPM_P1;HPM_P2
2023/01/24 00:00:23;;;;;;;47.20;31.30;;;;;;;3.55;74.49;102611.67;109797;1285;22305;-86
2023/01/24 00:02:51;;;;;;;47.20;31.30;;;;;;;3.53;74.30;102609.65;109876;1285;22164;-85
2023/01/24 00:05:19;;;;;;;51.20;31.70;;;;;;;3.53;74.44;102611.78;109864;1286;22164;-87
2023/01/24 00:08:09;;;;;;;48.30;31.60;;;;;;;3.51;74.20;102612.35;109753;1286;22120;-87
2023/01/24 00:11:24;;;;;;;51.00;32.40;;;;;;;3.46;74.42;102612.09;109953;1286;22201;-86
2023/01/24 00:14:24;;;;;;;50.20;30.30;;;;;;;3.48;74.37;102610.42;110050;1280;22174;-88
2023/01/24 00:17:33;;;;;;;51.00;31.40;;;;;;;3.47;74.42;102609.17;109763;1286;22103;-86
2023/01/24 00:20:26;;;;;;;48.50;32.50;;;;;;;3.44;74.39;102607.44;109871;1286;22232;-86
2023/01/24 00:22:56;;;;;;;50.30;32.50;;;;;;;3.43;74.36;102605.66;109787;1286;22158;-87
2023/01/24 00:25:24;;;;;;;54.80;32.80;;;;;;;3.39;74.27;102603.67;109842;1282;22148;-86
2023/01/24 00:27:51;;;;;;;45.20;31.70;;;;;;;3.38;74.50;102604.48;110015;1282;22365;-86
2023/01/24 00:30:41;;;;;;;50.60;31.70;;;;;;;3.40;74.54;102600.91;109927;1282;22149;-86
2023/01/24 00:33:12;;;;;;;48.70;31.10;;;;;;;3.41;74.58;102597.31;109638;1288;22133;-86
2023/01/24 00:36:06;;;;;;;51.40;32.30;;;;;;;3.44;74.63;102597.86;109690;1286;22180;-87
2023/01/24 00:39:06;;;;;;;49.20;31.40;;;;;;;3.50;74.64;102598.16;109871;1286;22158;-86
2023/01/24 00:41:57;;;;;;;54.10;33.60;;;;;;;3.52;74.69;102597.77;109848;1286;22375;-87
2023/01/24 00:44:37;;;;;;;45.40;30.70;;;;;;;3.52;74.49;102595.15;109758;1286;22179;-87
2023/01/24 00:47:07;;;;;;;47.90;30.80;;;;;;;3.51;74.61;102596.29;109703;1286;22405;-86
2023/01/24 00:49:37;;;;;;;51.50;33.50;;;;;;;3.52;74.58;102599.35;109721;1286;22164;-86
2023/01/24 00:52:29;;;;;;;48.30;31.80;;;;;;;3.55;74.59;102596.36;109978;1281;22171;-85
2023/01/24 00:54:57;;;;;;;45.80;31.00;;;;;;;3.55;74.28;102598.96;110072;1276;22196;-85
2023/01/24 00:57:25;;;;;;;47.10;32.20;;;;;;;3.54;74.54;102600.31;110013;1281;22356;-85
2023/01/24 00:59:53;;;;;;;50.00;32.00;;;;;;;3.54;74.38;102601.71;109789;1282;22200;-86
2023/01/24 01:02:21;;;;;;;48.80;31.80;;;;;;;3.52;74.43;102602.63;109998;1282;22308;-85
2023/01/24 01:04:51;;;;;;;53.80;32.40;;;;;;;3.50;74.45;102603.40;110062;1282;22480;-84
2023/01/24 01:07:21;;;;;;;50.40;31.10;;;;;;;3.52;74.66;102602.97;110048;1282;22182;-85
2023/01/24 01:09:50;;;;;;;55.00;31.00;;;;;;;3.54;74.55;102602.77;110044;1282;22174;-85
2023/01/24 01:12:17;;;;;;;48.10;30.50;;;;;;;3.57;74.45;102604.31;110053;1268;22165;-85
2023/01/24 01:14:45;;;;;;;47.60;31.10;;;;;;;3.54;74.38;102603.45;109895;1287;22146;-84
2023/01/24 01:17:13;;;;;;;48.20;31.80;;;;;;;3.54;74.46;102602.94;109962;1282;22178;-85
2023/01/24 01:19:40;;;;;;;52.10;30.30;;;;;;;3.53;74.37;102599.71;110035;1279;22209;-86
2023/01/24 01:22:11;;;;;;;46.10;30.90;;;;;;;3.48;74.47;102601.92;109669;1287;22408;-85
2023/01/24 01:24:40;;;;;;;48.00;30.90;;;;;;;3.49;74.52;102607.88;109454;1290;22193;-86
2023/01/24 01:27:08;;;;;;;49.40;31.90;;;;;;;3.45;74.56;102601.75;109572;1291;22245;-87
2023/01/24 01:29:39;;;;;;;46.90;31.90;;;;;;;3.50;74.76;102603.73;109587;1291;22182;-84
2023/01/24 01:32:06;;;;;;;49.40;31.90;;;;;;;3.52;74.73;102606.48;109599;1286;22300;-85
2023/01/24 01:34:55;;;;;;;47.80;30.50;;;;;;;3.53;74.65;102607.20;109636;1287;22212;-86
2023/01/24 01:37:25;;;;;;;48.90;32.00;;;;;;;3.52;74.53;102606.63;109616;1290;22168;-86
2023/01/24 01:39:54;;;;;;;46.30;31.70;;;;;;;3.51;74.67;102607.11;109436;1290;22992;-85
2023/01/24 01:42:46;;;;;;;52.70;32.50;;;;;;;3.50;74.57;102604.40;109490;1290;22204;-86
2023/01/24 01:46:08;;;;;;;48.70;30.50;;;;;;;3.52;74.77;102603.32;109129;1296;22372;-85
2023/01/24 01:48:46;;;;;;;48.70;30.60;;;;;;;3.53;74.64;102598.34;109112;1294;22150;-83
2023/01/24 01:51:17;;;;;;;46.30;30.60;;;;;;;3.53;74.75;102602.34;109113;1296;22172;-85
2023/01/24 01:53:49;;;;;;;46.60;30.00;;;;;;;3.56;74.97;102599.01;109187;1296;22226;-84
2023/01/24 01:56:45;;;;;;;46.40;31.70;;;;;;;3.55;74.70;102598.13;109149;1295;22275;-83
2023/01/24 01:59:16;;;;;;;;;;;;;;;3.53;74.81;102595.71;109477;1286;22425;-85
2023/01/24 02:01:45;;;;;;;49.00;30.00;;;;;;;3.49;74.86;102598.45;109846;1286;22994;-84
2023/01/24 02:04:44;;;;;;;50.30;31.20;;;;;;;3.48;74.89;102595.80;109961;1282;22935;-83
2023/01/24 02:07:37;;;;;;;52.10;31.70;;;;;;;3.47;74.74;102596.48;110095;1282;22382;-85
2023/01/24 02:10:06;;;;;;;47.50;30.90;;;;;;;3.50;75.17;102595.89;110512;1276;23195;-85
2023/01/24 02:12:45;;;;;;;45.50;29.90;;;;;;;3.50;74.86;102595.23;110079;1281;22123;-85
2023/01/24 02:18:05;;;;;;;47.30;29.40;;;;;;;3.51;74.97;102584.80;109896;1284;22156;-83
2023/01/24 02:20:41;;;;;;;47.80;30.70;;;;;;;3.52;75.14;102580.65;109905;1286;22214;-83
2023/01/24 02:23:23;;;;;;;49.50;30.40;;;;;;;3.55;75.26;102577.52;109766;1284;22282;-84
2023/01/24 02:26:15;;;;;;;45.80;29.80;;;;;;;3.54;75.03;102576.26;109734;1286;23156;-84
2023/01/24 02:29:10;;;;;;;48.10;30.00;;;;;;;3.48;74.91;102569.13;109735;1278;22222;-84
2023/01/24 02:32:02;;;;;;;41.80;29.10;;;;;;;3.46;75.30;102568.55;109994;1281;22213;-84
2023/01/24 02:34:30;;;;;;;44.90;30.50;;;;;;;3.49;75.38;102568.86;110255;1276;22970;-86
2023/01/24 02:37:03;;;;;;;48.30;29.90;;;;;;;3.52;75.32;102573.17;110274;1276;22623;-86
2023/01/24 02:39:59;;;;;;;49.50;31.50;;;;;;;3.53;75.44;102572.54;110211;1277;22799;-84
2023/01/24 02:42:34;;;;;;;43.10;29.10;;;;;;;3.49;75.27;102574.77;110393;1272;22256;-84
2023/01/24 02:45:42;;;;;;;47.60;30.10;;;;;;;3.51;75.43;102576.97;110544;1275;22173;-83
2023/01/24 02:48:09;;;;;;;43.50;28.80;;;;;;;3.53;75.44;102569.05;109864;1285;22139;-85
2023/01/24 02:53:32;;;;;;;43.00;29.60;;;;;;;3.60;75.57;102569.95;109454;1291;22183;-84
2023/01/24 02:58:50;;;;;;;48.40;31.00;;;;;;;3.58;75.51;102575.81;109502;1291;22169;-85
2023/01/24 03:01:19;;;;;;;47.00;29.60;;;;;;;3.58;75.49;102580.48;109034;1295;22238;-86
2023/01/24 03:03:52;;;;;;;43.40;28.40;;;;;;;3.54;75.43;102581.36;108689;1296;22170;-85
2023/01/24 03:09:58;;;;;;;43.80;27.80;;;;;;;3.49;75.51;102588.73;108883;1296;22203;-86
2023/01/24 03:41:14;;;;;;;40.80;27.60;;;;;;;3.56;75.92;102589.23;109956;1281;22132;-85
2023/01/24 03:43:46;;;;;;;42.30;27.10;;;;;;;3.56;76.02;102590.64;109529;1288;22188;-86
2023/01/24 03:46:14;;;;;;;40.50;28.00;;;;;;;3.58;75.97;102591.14;108986;1292;22262;-85
2023/01/24 03:48:54;;;;;;;44.10;27.00;;;;;;;3.59;75.87;102588.04;109197;1287;22154;-86
2023/01/24 03:54:31;;;;;;;43.10;28.70;;;;;;;3.62;76.00;102584.73;109611;1287;22415;-86
2023/01/24 03:57:02;;;;;;;39.70;26.60;;;;;;;3.62;75.99;102582.98;109642;1287;22291;-85
2023/01/24 03:59:31;;;;;;;42.20;27.40;;;;;;;3.61;76.05;102585.00;109114;1292;22192;-85
2023/01/24 04:02:00;;;;;;;38.80;26.40;;;;;;;3.62;75.82;102589.41;109271;1289;22152;-85
2023/01/24 04:07:38;;;;;;;39.80;27.00;;;;;;;3.62;76.04;102591.19;109496;1283;22205;-85
2023/01/24 04:10:09;;;;;;;38.80;26.40;;;;;;;3.64;75.91;102596.69;109534;1288;22253;-84
2023/01/24 04:12:41;;;;;;;39.50;27.20;;;;;;;3.64;75.92;102598.40;109408;1293;22277;-85
2023/01/24 04:15:16;;;;;;;38.30;27.20;;;;;;;3.63;75.85;102600.98;108750;1297;22934;-85
2023/01/24 04:18:04;;;;;;;36.40;26.30;;;;;;;3.58;75.67;102604.73;108721;1297;22301;-89
2023/01/24 04:20:34;;;;;;;35.00;25.50;;;;;;;3.54;75.54;102603.25;108892;1297;22193;-84
2023/01/24 04:23:06;;;;;;;35.20;25.40;;;;;;;3.55;75.98;102601.09;108746;1297;22182;-87
2023/01/24 04:25:34;;;;;;;39.50;26.10;;;;;;;3.56;75.92;102603.58;108436;1298;22206;-84
2023/01/24 04:28:03;;;;;;;39.10;27.40;;;;;;;3.54;75.73;102606.26;108632;1297;22161;-85
2023/01/24 04:30:34;;;;;;;36.70;26.20;;;;;;;3.56;76.08;102603.89;108535;1295;22876;-85
2023/01/24 04:33:05;;;;;;;37.20;27.70;;;;;;;3.57;76.12;102600.64;109427;1286;22176;-85
2023/01/24 04:36:27;;;;;;;38.00;26.60;;;;;;;3.57;76.24;102596.27;109804;1285;22158;-86
2023/01/24 04:39:18;;;;;;;38.30;26.30;;;;;;;3.55;76.08;102598.48;109793;1285;22911;-86
2023/01/24 04:42:29;;;;;;;36.80;25.70;;;;;;;3.58;76.36;102598.59;109850;1285;22173;-84
2023/01/24 04:44:56;;;;;;;38.10;26.10;;;;;;;3.62;76.25;102597.28;109801;1285;22621;-86
2023/01/24 04:47:26;;;;;;;38.00;26.60;;;;;;;3.64;76.11;102598.41;109585;1289;22194;-85
2023/01/24 04:49:54;;;;;;;47.00;27.60;;;;;;;3.64;76.15;102604.52;109193;1292;22177;-85
2023/01/24 04:52:25;;;;;;;37.40;25.30;;;;;;;3.65;76.14;102603.89;109468;1292;22294;-85
2023/01/24 04:55:02;;;;;;;37.30;25.80;;;;;;;3.65;76.19;102607.20;109386;1292;22769;-85
2023/01/24 04:57:30;;;;;;;38.20;26.50;;;;;;;3.67;76.20;102599.63;108903;1298;22369;-85
2023/01/24 05:00:05;;;;;;;35.30;25.00;;;;;;;3.69;75.88;102599.56;109137;1295;22193;-83
2023/01/24 05:02:33;;;;;;;39.40;27.60;;;;;;;3.67;75.76;102606.25;109467;1293;22201;-85
2023/01/24 05:05:05;;;;;;;37.90;25.00;;;;;;;3.67;75.92;102603.99;109538;1295;22201;-85
2023/01/24 05:07:34;;;;;;;33.80;25.10;;;;;;;3.68;75.86;102605.98;109344;1290;22171;-85
2023/01/24 05:10:12;;;;;;;38.30;26.30;;;;;;;3.67;75.94;102601.71;109749;1289;22169;-86
2023/01/24 05:12:43;;;;;;;38.60;25.30;;;;;;;3.67;76.01;102605.04;109994;1284;22362;-86
2023/01/24 05:15:37;;;;;;;36.50;24.80;;;;;;;3.63;75.69;102609.88;110081;1280;22145;-86
2023/01/24 05:18:08;;;;;;;36.00;23.70;;;;;;;3.62;75.82;102610.50;110277;1264;22203;-85
2023/01/24 05:20:39;;;;;;;36.10;26.50;;;;;;;3.63;75.87;102606.34;110261;1280;22137;-86
2023/01/24 05:26:14;;;;;;;41.60;27.50;;;;;;;3.71;75.99;102608.92;105134;1307;558370;-86
2023/01/24 05:29:05;;;;;;;40.80;25.80;;;;;;;3.74;76.00;102611.02;106875;1294;22526;-86
2023/01/24 05:31:53;;;;;;;34.90;25.20;;;;;;;3.77;75.87;102613.56;105957;1299;23671;-86
2023/01/24 05:34:21;;;;;;;37.20;26.50;;;;;;;3.79;76.07;102611.63;105372;1302;24322;-88
2023/01/24 05:41:53;;;;;;;34.60;24.80;;;;;;;3.75;75.93;102618.36;100291;1308;25294;-87
2023/01/24 05:44:46;;;;;;;34.00;25.10;;;;;;;3.73;75.91;102621.21;105599;1304;22575;-86
